sensor_id;sensor_type;location;lat;lon;timestamp;pressure;altitude;pressure_sealevel;temperature;humidity
13241;BME280;6687;47.790;7.322;2023-07-30T05:25:12;98750.25;;;22.31;70.03
13241;BME280;6687;47.790;7.322;2023-07-30T05:27:39;98755.44;;;22.33;70.12
13241;BME280;6687;47.790;7.322;2023-07-30T05:30:06;98767.56;;;22.37;70.04
13241;BME280;6687;47.790;7.322;2023-07-30T05:32:33;98768.34;;;22.39;69.78
13241;BME280;6687;47.790;7.322;2023-07-30T05:35:00;98769.28;;;22.55;68.76
13241;BME280;6687;47.790;7.322;2023-07-30T05:37:27;98767.19;;;22.44;69.40
13241;BME280;6687;47.790;7.322;2023-07-30T05:39:54;98774.09;;;22.47;69.53
13241;BME280;6687;47.790;7.322;2023-07-30T05:42:22;98772.69;;;22.57;68.62
13241;BME280;6687;47.790;7.322;2023-07-30T05:44:48;98771.41;;;22.66;68.65
13241;BME280;6687;47.790;7.322;2023-07-30T05:47:15;98785.75;;;22.60;68.88
13241;BME280;6687;47.790;7.322;2023-07-30T05:49:42;98781.66;;;22.72;68.88
13241;BME280;6687;47.790;7.322;2023-07-30T05:52:08;98786.13;;;22.88;67.89
13241;BME280;6687;47.790;7.322;2023-07-30T05:54:35;98793.31;;;23.03;66.88
13241;BME280;6687;47.790;7.322;2023-07-30T05:57:02;98793.97;;;22.89;68.01
13241;BME280;6687;47.790;7.322;2023-07-30T05:59:30;98799.59;;;22.83;68.95
13241;BME280;6687;47.790;7.322;2023-07-30T06:01:57;98802.19;;;23.02;66.96
13241;BME280;6687;47.790;7.322;2023-07-30T06:04:28;98806.19;;;23.09;66.64
13241;BME280;6687;47.790;7.322;2023-07-30T06:06:54;98803.22;;;23.15;66.90
13241;BME280;6687;47.790;7.322;2023-07-30T06:09:21;98807.59;;;23.16;66.28
13241;BME280;6687;47.790;7.322;2023-07-30T06:11:49;98803.38;;;22.95;67.47
13241;BME280;6687;47.790;7.322;2023-07-30T06:14:15;98806.81;;;23.14;66.85
13241;BME280;6687;47.790;7.322;2023-07-30T06:16:43;98814.41;;;23.38;65.99
13241;BME280;6687;47.790;7.322;2023-07-30T06:19:10;98823.13;;;23.22;66.58
13241;BME280;6687;47.790;7.322;2023-07-30T06:21:37;98822.97;;;23.26;66.52
13241;BME280;6687;47.790;7.322;2023-07-30T06:24:04;98819.47;;;23.58;65.16
13241;BME280;6687;47.790;7.322;2023-07-30T06:26:31;98824.94;;;23.71;63.56
13241;BME280;6687;47.790;7.322;2023-07-30T06:28:57;98834.22;;;23.80;63.92
13241;BME280;6687;47.790;7.322;2023-07-30T06:31:24;98836.41;;;23.72;63.65
13241;BME280;6687;47.790;7.322;2023-07-30T06:33:52;98835.63;;;23.70;63.72
13241;BME280;6687;47.790;7.322;2023-07-30T06:36:19;98829.03;;;23.94;62.85
13241;BME280;6687;47.790;7.322;2023-07-30T06:38:46;98828.94;;;23.96;62.84
13241;BME280;6687;47.790;7.322;2023-07-30T06:41:13;98834.41;;;24.09;62.16
13241;BME280;6687;47.790;7.322;2023-07-30T06:43:40;98827.22;;;24.11;62.47
13241;BME280;6687;47.790;7.322;2023-07-30T06:46:07;98827.91;;;24.30;61.56
13241;BME280;6687;47.790;7.322;2023-07-30T06:48:34;98827.13;;;24.28;61.60
13241;BME280;6687;47.790;7.322;2023-07-30T06:51:05;98826.34;;;24.42;61.05
13241;BME280;6687;47.790;7.322;2023-07-30T06:53:32;98834.31;;;24.58;60.89
13241;BME280;6687;47.790;7.322;2023-07-30T06:55:59;98836.75;;;24.61;60.79
13241;BME280;6687;47.790;7.322;2023-07-30T06:58:26;98832.66;;;24.71;60.22
13241;BME280;6687;47.790;7.322;2023-07-30T07:00:52;98837.59;;;24.77;59.68
13241;BME280;6687;47.790;7.322;2023-07-30T07:03:19;98848.78;;;24.83;58.95
13241;BME280;6687;47.790;7.322;2023-07-30T07:05:52;98848.16;;;24.63;57.80
13241;BME280;6687;47.790;7.322;2023-07-30T07:08:21;98841.44;;;25.02;58.29
13241;BME280;6687;47.790;7.322;2023-07-30T07:10:47;98846.22;;;25.11;57.63
13241;BME280;6687;47.790;7.322;2023-07-30T07:13:14;98848.94;;;25.10;57.88
13241;BME280;6687;47.790;7.322;2023-07-30T07:15:41;98857.63;;;24.97;58.13
13241;BME280;6687;47.790;7.322;2023-07-30T07:18:08;98866.25;;;25.01;57.84
13241;BME280;6687;47.790;7.322;2023-07-30T07:20:35;98867.41;;;25.11;55.95
13241;BME280;6687;47.790;7.322;2023-07-30T07:23:02;98864.31;;;25.19;57.04
13241;BME280;6687;47.790;7.322;2023-07-30T07:25:30;98865.53;;;25.13;54.92
13241;BME280;6687;47.790;7.322;2023-07-30T07:27:57;98853.28;;;25.41;56.09
13241;BME280;6687;47.790;7.322;2023-07-30T07:30:24;98866.66;;;25.54;55.69
13241;BME280;6687;47.790;7.322;2023-07-30T07:32:52;98870.72;;;25.45;55.75
13241;BME280;6687;47.790;7.322;2023-07-30T07:35:19;98877.72;;;25.01;53.55
13241;BME280;6687;47.790;7.322;2023-07-30T07:37:46;98871.66;;;25.30;55.53
13241;BME280;6687;47.790;7.322;2023-07-30T07:40:13;98887.56;;;25.30;53.76
13241;BME280;6687;47.790;7.322;2023-07-30T07:42:41;98881.59;;;25.10;52.70
13241;BME280;6687;47.790;7.322;2023-07-30T07:45:08;98885.69;;;25.16;52.94
13241;BME280;6687;47.790;7.322;2023-07-30T07:47:35;98888.84;;;24.92;53.29
13241;BME280;6687;47.790;7.322;2023-07-30T07:50:01;98893.16;;;25.39;53.21
13241;BME280;6687;47.790;7.322;2023-07-30T07:52:28;98892.81;;;24.85;51.69
13241;BME280;6687;47.790;7.322;2023-07-30T07:54:55;98889.00;;;25.05;54.04
13241;BME280;6687;47.790;7.322;2023-07-30T07:57:22;98889.63;;;25.25;53.29
13241;BME280;6687;47.790;7.322;2023-07-30T07:59:50;98896.34;;;25.00;50.97
13241;BME280;6687;47.790;7.322;2023-07-30T08:02:16;98898.16;;;25.30;51.98
13241;BME280;6687;47.790;7.322;2023-07-30T08:04:44;98899.72;;;25.18;51.11
13241;BME280;6687;47.790;7.322;2023-07-30T08:07:10;98902.44;;;25.32;52.96
13241;BME280;6687;47.790;7.322;2023-07-30T08:09:37;98902.81;;;25.10;50.83
13241;BME280;6687;47.790;7.322;2023-07-30T08:12:04;98919.13;;;24.88;52.91
13241;BME280;6687;47.790;7.322;2023-07-30T08:14:31;98916.69;;;25.15;53.24
13241;BME280;6687;47.790;7.322;2023-07-30T08:16:59;98919.97;;;24.89;51.37
13241;BME280;6687;47.790;7.322;2023-07-30T08:19:26;98930.25;;;24.95;51.23
13241;BME280;6687;47.790;7.322;2023-07-30T08:21:53;98924.44;;;24.72;52.12
13241;BME280;6687;47.790;7.322;2023-07-30T08:24:21;98922.38;;;24.93;51.21
13241;BME280;6687;47.790;7.322;2023-07-30T08:26:48;98925.44;;;25.01;52.04
13241;BME280;6687;47.790;7.322;2023-07-30T08:29:15;98925.00;;;25.39;52.37
13241;BME280;6687;47.790;7.322;2023-07-30T08:31:42;98922.88;;;25.00;51.29
13241;BME280;6687;47.790;7.322;2023-07-30T08:34:10;98917.50;;;25.32;50.75
13241;BME280;6687;47.790;7.322;2023-07-30T08:36:37;98920.97;;;24.56;51.43
13241;BME280;6687;47.790;7.322;2023-07-30T08:39:04;98917.88;;;25.10;52.36
13241;BME280;6687;47.790;7.322;2023-07-30T08:41:31;98920.63;;;25.08;51.25
13241;BME280;6687;47.790;7.322;2023-07-30T08:43:58;98922.47;;;24.92;52.32
13241;BME280;6687;47.790;7.322;2023-07-30T08:46:25;98920.34;;;24.67;51.36
13241;BME280;6687;47.790;7.322;2023-07-30T08:48:52;98925.28;;;24.89;51.40
13241;BME280;6687;47.790;7.322;2023-07-30T08:51:21;98925.06;;;24.77;51.14
13241;BME280;6687;47.790;7.322;2023-07-30T08:53:48;98928.97;;;25.32;51.08
13241;BME280;6687;47.790;7.322;2023-07-30T08:56:15;98917.91;;;24.94;50.86
13241;BME280;6687;47.790;7.322;2023-07-30T08:58:43;98922.06;;;24.68;50.59
13241;BME280;6687;47.790;7.322;2023-07-30T09:01:11;98917.88;;;25.10;50.53
13241;BME280;6687;47.790;7.322;2023-07-30T09:03:40;98924.94;;;24.95;49.46
13241;BME280;6687;47.790;7.322;2023-07-30T09:06:07;98927.47;;;24.96;48.70
13241;BME280;6687;47.790;7.322;2023-07-30T09:08:35;98921.53;;;24.61;49.03
13241;BME280;6687;47.790;7.322;2023-07-30T09:11:08;98920.69;;;25.23;50.08
13241;BME280;6687;47.790;7.322;2023-07-30T09:13:38;98926.81;;;24.93;49.17
13241;BME280;6687;47.790;7.322;2023-07-30T09:16:09;98918.44;;;24.85;48.97
13241;BME280;6687;47.790;7.322;2023-07-30T09:18:40;98927.31;;;24.99;49.37
13241;BME280;6687;47.790;7.322;2023-07-30T09:21:08;98930.44;;;24.76;47.54
13241;BME280;6687;47.790;7.322;2023-07-30T09:23:41;98934.06;;;25.05;48.35
13241;BME280;6687;47.790;7.322;2023-07-30T09:26:08;98936.00;;;25.17;48.68
13241;BME280;6687;47.790;7.322;2023-07-30T09:28:34;98942.50;;;25.28;48.60
13241;BME280;6687;47.790;7.322;2023-07-30T09:31:02;98939.50;;;25.18;48.46
13241;BME280;6687;47.790;7.322;2023-07-30T09:33:30;98936.22;;;25.45;49.17
13241;BME280;6687;47.790;7.322;2023-07-30T09:35:57;98940.91;;;25.39;48.42
13241;BME280;6687;47.790;7.322;2023-07-30T09:38:24;98947.03;;;25.26;49.51
13241;BME280;6687;47.790;7.322;2023-07-30T09:40:52;98949.94;;;25.51;47.82
13241;BME280;6687;47.790;7.322;2023-07-30T09:43:19;98943.78;;;25.95;47.64
13241;BME280;6687;47.790;7.322;2023-07-30T09:45:46;98930.88;;;26.04;47.77
13241;BME280;6687;47.790;7.322;2023-07-30T09:48:14;98933.91;;;26.26;47.49
13241;BME280;6687;47.790;7.322;2023-07-30T09:50:41;98940.53;;;26.19;45.53
13241;BME280;6687;47.790;7.322;2023-07-30T09:53:10;98943.72;;;26.53;45.32
13241;BME280;6687;47.790;7.322;2023-07-30T09:55:38;98937.13;;;26.17;45.36
13241;BME280;6687;47.790;7.322;2023-07-30T09:58:06;98948.66;;;26.59;46.35
13241;BME280;6687;47.790;7.322;2023-07-30T10:00:36;98943.34;;;26.59;46.91
13241;BME280;6687;47.790;7.322;2023-07-30T10:03:04;98930.97;;;26.72;44.75
13241;BME280;6687;47.790;7.322;2023-07-30T10:05:33;98932.31;;;26.65;42.24
13241;BME280;6687;47.790;7.322;2023-07-30T10:08:05;98948.91;;;26.69;43.57
13241;BME280;6687;47.790;7.322;2023-07-30T10:10:35;98934.00;;;27.21;41.30
13241;BME280;6687;47.790;7.322;2023-07-30T10:13:06;98933.94;;;27.35;38.88
13241;BME280;6687;47.790;7.322;2023-07-30T10:15:35;98939.59;;;27.69;39.00
13241;BME280;6687;47.790;7.322;2023-07-30T10:18:02;98944.94;;;27.56;38.92
13241;BME280;6687;47.790;7.322;2023-07-30T10:20:29;98945.56;;;27.85;39.15
13241;BME280;6687;47.790;7.322;2023-07-30T10:22:59;98945.25;;;27.77;40.84
13241;BME280;6687;47.790;7.322;2023-07-30T10:25:28;98947.16;;;27.75;40.29
13241;BME280;6687;47.790;7.322;2023-07-30T10:27:56;98954.72;;;27.81;40.38
13241;BME280;6687;47.790;7.322;2023-07-30T10:30:30;98940.47;;;27.82;40.08
13241;BME280;6687;47.790;7.322;2023-07-30T10:33:00;98935.03;;;28.22;39.39
13241;BME280;6687;47.790;7.322;2023-07-30T10:35:38;98936.63;;;27.86;39.59
13241;BME280;6687;47.790;7.322;2023-07-30T10:38:13;98949.13;;;27.99;39.45
13241;BME280;6687;47.790;7.322;2023-07-30T10:40:40;98948.44;;;28.33;38.46
13241;BME280;6687;47.790;7.322;2023-07-30T10:43:14;98956.81;;;28.53;39.36
13241;BME280;6687;47.790;7.322;2023-07-30T10:45:50;98954.44;;;27.99;38.79
13241;BME280;6687;47.790;7.322;2023-07-30T10:48:17;98954.63;;;28.21;39.67
13241;BME280;6687;47.790;7.322;2023-07-30T10:50:45;98958.91;;;28.24;38.17
13241;BME280;6687;47.790;7.322;2023-07-30T10:53:14;98955.16;;;27.75;38.00
13241;BME280;6687;47.790;7.322;2023-07-30T10:55:42;98950.25;;;28.20;37.83
13241;BME280;6687;47.790;7.322;2023-07-30T10:58:08;98955.09;;;28.02;36.77
13241;BME280;6687;47.790;7.322;2023-07-30T11:00:37;98961.50;;;28.49;38.00
13241;BME280;6687;47.790;7.322;2023-07-30T11:03:05;98950.75;;;28.51;36.33
13241;BME280;6687;47.790;7.322;2023-07-30T11:05:32;98963.72;;;28.92;37.74
13241;BME280;6687;47.790;7.322;2023-07-30T11:07:58;98959.41;;;29.03;35.44
13241;BME280;6687;47.790;7.322;2023-07-30T11:10:25;98962.69;;;28.82;36.00
13241;BME280;6687;47.790;7.322;2023-07-30T11:12:52;98960.38;;;29.26;35.65
13241;BME280;6687;47.790;7.322;2023-07-30T11:15:18;98967.44;;;29.27;37.61
13241;BME280;6687;47.790;7.322;2023-07-30T11:17:45;98965.47;;;29.64;37.00
13241;BME280;6687;47.790;7.322;2023-07-30T11:20:23;98965.41;;;29.77;34.44
13241;BME280;6687;47.790;7.322;2023-07-30T11:22:52;98971.97;;;29.84;34.63
13241;BME280;6687;47.790;7.322;2023-07-30T11:25:19;98980.47;;;29.89;35.94
13241;BME280;6687;47.790;7.322;2023-07-30T11:27:46;98983.38;;;29.75;34.08
13241;BME280;6687;47.790;7.322;2023-07-30T11:30:12;98974.47;;;29.63;33.66
13241;BME280;6687;47.790;7.322;2023-07-30T11:32:41;98980.41;;;29.67;33.92
13241;BME280;6687;47.790;7.322;2023-07-30T11:35:08;98982.16;;;29.79;33.02
13241;BME280;6687;47.790;7.322;2023-07-30T11:37:38;98993.53;;;29.70;33.28
13241;BME280;6687;47.790;7.322;2023-07-30T11:40:07;98983.06;;;30.13;33.31
13241;BME280;6687;47.790;7.322;2023-07-30T11:42:34;98976.72;;;30.60;31.98
13241;BME280;6687;47.790;7.322;2023-07-30T11:45:19;98980.53;;;30.35;32.85
13241;BME280;6687;47.790;7.322;2023-07-30T11:47:46;98990.47;;;30.44;32.80
13241;BME280;6687;47.790;7.322;2023-07-30T11:50:13;99000.38;;;29.74;33.50
13241;BME280;6687;47.790;7.322;2023-07-30T11:52:53;99006.25;;;30.02;33.19
13241;BME280;6687;47.790;7.322;2023-07-30T11:55:20;99012.56;;;29.06;33.75
13241;BME280;6687;47.790;7.322;2023-07-30T11:57:49;99009.75;;;29.55;32.73
13241;BME280;6687;47.790;7.322;2023-07-30T12:00:16;99004.44;;;29.07;33.56
13241;BME280;6687;47.790;7.322;2023-07-30T12:02:46;98992.56;;;29.71;34.88
13241;BME280;6687;47.790;7.322;2023-07-30T12:05:16;98988.78;;;30.09;34.36
13241;BME280;6687;47.790;7.322;2023-07-30T12:07:44;99007.22;;;30.23;34.20
13241;BME280;6687;47.790;7.322;2023-07-30T12:10:14;98992.63;;;30.16;34.32
13241;BME280;6687;47.790;7.322;2023-07-30T12:12:44;98997.91;;;29.71;33.95
13241;BME280;6687;47.790;7.322;2023-07-30T12:15:11;99009.41;;;29.96;34.49
13241;BME280;6687;47.790;7.322;2023-07-30T12:17:38;99000.06;;;30.01;35.54
13241;BME280;6687;47.790;7.322;2023-07-30T12:20:06;99000.66;;;30.27;34.37
13241;BME280;6687;47.790;7.322;2023-07-30T12:22:33;99003.31;;;29.93;33.37
13241;BME280;6687;47.790;7.322;2023-07-30T12:25:01;99004.41;;;29.91;33.68
13241;BME280;6687;47.790;7.322;2023-07-30T12:27:30;98990.22;;;30.13;33.39
13241;BME280;6687;47.790;7.322;2023-07-30T12:29:56;98987.41;;;30.71;34.91
13241;BME280;6687;47.790;7.322;2023-07-30T12:32:23;98996.28;;;29.92;33.82
13241;BME280;6687;47.790;7.322;2023-07-30T12:34:53;98999.63;;;29.72;34.29
13241;BME280;6687;47.790;7.322;2023-07-30T12:37:20;98998.72;;;30.07;34.02
13241;BME280;6687;47.790;7.322;2023-07-30T12:39:46;98992.34;;;29.74;33.68
13241;BME280;6687;47.790;7.322;2023-07-30T12:42:13;99001.16;;;30.21;34.31
13241;BME280;6687;47.790;7.322;2023-07-30T12:44:41;98998.53;;;30.32;34.44
13241;BME280;6687;47.790;7.322;2023-07-30T12:47:08;98997.38;;;30.80;34.16
13241;BME280;6687;47.790;7.322;2023-07-30T12:49:34;98999.84;;;30.72;33.18
13241;BME280;6687;47.790;7.322;2023-07-30T12:52:01;99013.72;;;31.21;33.28
13241;BME280;6687;47.790;7.322;2023-07-30T12:54:28;99015.59;;;30.98;32.35
13241;BME280;6687;47.790;7.322;2023-07-30T12:56:55;99002.47;;;30.83;31.70
13241;BME280;6687;47.790;7.322;2023-07-30T12:59:22;99007.16;;;31.13;33.21
13241;BME280;6687;47.790;7.322;2023-07-30T13:01:50;99002.59;;;30.93;32.94
13241;BME280;6687;47.790;7.322;2023-07-30T13:04:16;99004.56;;;30.68;31.89
13241;BME280;6687;47.790;7.322;2023-07-30T13:06:43;99013.59;;;30.56;32.78
13241;BME280;6687;47.790;7.322;2023-07-30T13:09:10;99017.66;;;31.05;31.22
13241;BME280;6687;47.790;7.322;2023-07-30T13:11:36;99015.41;;;30.67;31.28
13241;BME280;6687;47.790;7.322;2023-07-30T13:14:03;99020.53;;;31.13;30.59
13241;BME280;6687;47.790;7.322;2023-07-30T13:16:30;99017.19;;;30.78;30.80
13241;BME280;6687;47.790;7.322;2023-07-30T13:18:59;99022.06;;;30.05;31.02
13241;BME280;6687;47.790;7.322;2023-07-30T13:21:25;99017.13;;;31.11;30.98
13241;BME280;6687;47.790;7.322;2023-07-30T13:23:52;99028.13;;;31.08;32.22
13241;BME280;6687;47.790;7.322;2023-07-30T13:26:19;99025.41;;;31.20;32.61
13241;BME280;6687;47.790;7.322;2023-07-30T13:28:46;99036.53;;;31.68;30.30
13241;BME280;6687;47.790;7.322;2023-07-30T13:31:12;99036.34;;;31.17;30.07
13241;BME280;6687;47.790;7.322;2023-07-30T13:33:39;99031.31;;;30.91;30.33
13241;BME280;6687;47.790;7.322;2023-07-30T13:36:07;99019.34;;;31.71;31.75
13241;BME280;6687;47.790;7.322;2023-07-30T13:38:34;99017.25;;;31.96;32.39
13241;BME280;6687;47.790;7.322;2023-07-30T13:41:01;99027.78;;;31.66;29.26
13241;BME280;6687;47.790;7.322;2023-07-30T13:43:28;99029.41;;;32.21;29.32
13241;BME280;6687;47.790;7.322;2023-07-30T13:45:55;99032.03;;;32.11;30.74
13241;BME280;6687;47.790;7.322;2023-07-30T13:48:23;99026.94;;;31.66;29.78
13241;BME280;6687;47.790;7.322;2023-07-30T13:50:50;99026.56;;;31.91;29.04
13241;BME280;6687;47.790;7.322;2023-07-30T13:53:18;99026.81;;;31.88;28.22
13241;BME280;6687;47.790;7.322;2023-07-30T13:55:45;99030.13;;;32.54;28.15
13241;BME280;6687;47.790;7.322;2023-07-30T13:58:12;99028.75;;;32.28;28.35
13241;BME280;6687;47.790;7.322;2023-07-30T14:00:40;99027.84;;;32.18;28.73
13241;BME280;6687;47.790;7.322;2023-07-30T14:03:07;99034.00;;;32.70;31.18
13241;BME280;6687;47.790;7.322;2023-07-30T14:05:34;99030.88;;;32.04;27.86
13241;BME280;6687;47.790;7.322;2023-07-30T14:08:01;99034.69;;;32.32;27.73
13241;BME280;6687;47.790;7.322;2023-07-30T14:10:29;99029.66;;;32.48;28.32
13241;BME280;6687;47.790;7.322;2023-07-30T14:12:56;99034.63;;;32.22;30.16
13241;BME280;6687;47.790;7.322;2023-07-30T14:15:22;99038.94;;;31.92;29.46
13241;BME280;6687;47.790;7.322;2023-07-30T14:17:49;99036.34;;;31.81;29.45
13241;BME280;6687;47.790;7.322;2023-07-30T14:20:17;99035.41;;;31.71;29.11
13241;BME280;6687;47.790;7.322;2023-07-30T14:22:44;99023.47;;;31.54;28.45
13241;BME280;6687;47.790;7.322;2023-07-30T14:25:10;99025.06;;;31.45;28.86
13241;BME280;6687;47.790;7.322;2023-07-30T14:27:38;99036.66;;;32.30;28.46
13241;BME280;6687;47.790;7.322;2023-07-30T14:30:06;99037.94;;;32.05;28.51
13241;BME280;6687;47.790;7.322;2023-07-30T14:32:34;99037.34;;;32.53;28.50
13241;BME280;6687;47.790;7.322;2023-07-30T14:35:00;99034.41;;;32.56;26.99
13241;BME280;6687;47.790;7.322;2023-07-30T14:37:27;99033.66;;;33.04;30.36
13241;BME280;6687;47.790;7.322;2023-07-30T14:39:54;99026.47;;;32.95;28.60
13241;BME280;6687;47.790;7.322;2023-07-30T14:42:20;99031.75;;;33.16;26.65
13241;BME280;6687;47.790;7.322;2023-07-30T14:44:49;99038.06;;;33.05;28.12
13241;BME280;6687;47.790;7.322;2023-07-30T14:47:15;99036.00;;;33.19;26.44
13241;BME280;6687;47.790;7.322;2023-07-30T14:49:43;99036.75;;;32.90;26.31
13241;BME280;6687;47.790;7.322;2023-07-30T14:52:09;99034.88;;;33.51;26.07
13241;BME280;6687;47.790;7.322;2023-07-30T14:54:36;99040.13;;;33.72;26.74
13241;BME280;6687;47.790;7.322;2023-07-30T14:57:03;99041.06;;;33.12;27.85
13241;BME280;6687;47.790;7.322;2023-07-30T14:59:30;99041.22;;;33.49;25.86
13241;BME280;6687;47.790;7.322;2023-07-30T15:01:58;99029.38;;;33.62;25.56
13241;BME280;6687;47.790;7.322;2023-07-30T15:04:24;99028.88;;;34.05;28.22
13241;BME280;6687;47.790;7.322;2023-07-30T15:06:51;99028.50;;;32.72;26.41
13241;BME280;6687;47.790;7.322;2023-07-30T15:09:18;99031.94;;;32.43;26.42
13241;BME280;6687;47.790;7.322;2023-07-30T15:11:45;99025.69;;;32.74;28.31
13241;BME280;6687;47.790;7.322;2023-07-30T15:14:11;99026.53;;;32.34;26.03
13241;BME280;6687;47.790;7.322;2023-07-30T15:16:38;99016.38;;;32.78;28.05
13241;BME280;6687;47.790;7.322;2023-07-30T15:19:06;99034.00;;;32.70;26.19
13241;BME280;6687;47.790;7.322;2023-07-30T15:21:33;99017.84;;;31.78;26.29
13241;BME280;6687;47.790;7.322;2023-07-30T15:24:00;99023.47;;;31.96;26.77
13241;BME280;6687;47.790;7.322;2023-07-30T15:26:27;99029.22;;;31.91;26.66
13241;BME280;6687;47.790;7.322;2023-07-30T15:28:54;99023.81;;;32.03;27.03
13241;BME280;6687;47.790;7.322;2023-07-30T15:31:21;99024.59;;;31.94;27.15
13241;BME280;6687;47.790;7.322;2023-07-30T15:33:47;99021.31;;;32.11;26.69
13241;BME280;6687;47.790;7.322;2023-07-30T15:36:15;99025.75;;;31.80;26.65
13241;BME280;6687;47.790;7.322;2023-07-30T15:38:42;99033.56;;;32.35;29.17
13241;BME280;6687;47.790;7.322;2023-07-30T15:41:09;99033.69;;;32.23;29.99
13241;BME280;6687;47.790;7.322;2023-07-30T15:43:35;99033.88;;;31.89;26.69
13241;BME280;6687;47.790;7.322;2023-07-30T15:46:06;99031.88;;;32.34;27.13
13241;BME280;6687;47.790;7.322;2023-07-30T15:48:32;99021.44;;;32.40;27.83
13241;BME280;6687;47.790;7.322;2023-07-30T15:51:00;99027.84;;;32.18;26.54
13241;BME280;6687;47.790;7.322;2023-07-30T15:53:29;99027.91;;;32.59;26.44
13241;BME280;6687;47.790;7.322;2023-07-30T15:55:59;99019.69;;;32.91;27.83
13241;BME280;6687;47.790;7.322;2023-07-30T15:58:26;99020.81;;;32.98;27.91
13241;BME280;6687;47.790;7.322;2023-07-30T16:00:53;99022.63;;;31.42;26.10
13241;BME280;6687;47.790;7.322;2023-07-30T16:03:20;99016.22;;;31.66;26.05
13241;BME280;6687;47.790;7.322;2023-07-30T16:05:47;99029.66;;;31.22;26.41
13241;BME280;6687;47.790;7.322;2023-07-30T16:08:14;99026.16;;;31.10;27.16
13241;BME280;6687;47.790;7.322;2023-07-30T16:10:42;99016.81;;;31.69;26.50
13241;BME280;6687;47.790;7.322;2023-07-30T16:13:10;99024.91;;;31.26;29.10
13241;BME280;6687;47.790;7.322;2023-07-30T16:15:37;99020.66;;;31.56;28.21
13241;BME280;6687;47.790;7.322;2023-07-30T16:18:03;99017.28;;;31.54;30.26
13241;BME280;6687;47.790;7.322;2023-07-30T16:20:31;99020.66;;;31.56;29.51
13241;BME280;6687;47.790;7.322;2023-07-30T16:22:57;99013.09;;;31.17;28.59
13241;BME280;6687;47.790;7.322;2023-07-30T16:25:24;99014.28;;;30.69;28.84
13241;BME280;6687;47.790;7.322;2023-07-30T16:27:52;99023.91;;;30.61;28.43
13241;BME280;6687;47.790;7.322;2023-07-30T16:30:19;99022.53;;;30.10;28.55
13241;BME280;6687;47.790;7.322;2023-07-30T16:32:46;99020.41;;;30.49;30.23
13241;BME280;6687;47.790;7.322;2023-07-30T16:35:12;99013.06;;;30.96;31.21
13241;BME280;6687;47.790;7.322;2023-07-30T16:37:40;99025.47;;;30.29;29.68
13241;BME280;6687;47.790;7.322;2023-07-30T16:40:07;99022.31;;;30.24;28.71
13241;BME280;6687;47.790;7.322;2023-07-30T16:42:34;99032.31;;;29.76;29.47
13241;BME280;6687;47.790;7.322;2023-07-30T16:45:03;99027.59;;;29.79;29.45
13241;BME280;6687;47.790;7.322;2023-07-30T16:47:30;99018.66;;;30.03;29.48
13241;BME280;6687;47.790;7.322;2023-07-30T16:49:57;99026.00;;;29.88;29.63
13241;BME280;6687;47.790;7.322;2023-07-30T16:52:24;99018.22;;;30.54;31.09
13241;BME280;6687;47.790;7.322;2023-07-30T16:54:50;99025.47;;;30.29;31.74
13241;BME280;6687;47.790;7.322;2023-07-30T16:57:17;99032.94;;;29.55;32.01
13241;BME280;6687;47.790;7.322;2023-07-30T16:59:44;99036.47;;;29.91;32.60
13241;BME280;6687;47.790;7.322;2023-07-30T17:02:12;99034.19;;;29.38;31.61
13241;BME280;6687;47.790;7.322;2023-07-30T17:04:39;99033.41;;;29.49;31.18
13241;BME280;6687;47.790;7.322;2023-07-30T17:07:05;99036.13;;;29.36;31.25
13241;BME280;6687;47.790;7.322;2023-07-30T17:09:32;99040.91;;;29.20;29.75
13241;BME280;6687;47.790;7.322;2023-07-30T17:11:59;99036.81;;;29.75;30.48
13241;BME280;6687;47.790;7.322;2023-07-30T17:14:29;99040.25;;;29.29;30.57
13241;BME280;6687;47.790;7.322;2023-07-30T17:16:55;99037.13;;;28.61;30.97
13241;BME280;6687;47.790;7.322;2023-07-30T17:19:25;99035.53;;;29.68;31.18
13241;BME280;6687;47.790;7.322;2023-07-30T17:21:52;99036.00;;;29.62;31.12
13241;BME280;6687;47.790;7.322;2023-07-30T17:24:19;99035.75;;;30.00;33.52
13241;BME280;6687;47.790;7.322;2023-07-30T17:26:46;99025.94;;;30.12;32.57
13241;BME280;6687;47.790;7.322;2023-07-30T17:29:12;99035.38;;;29.58;30.70
13241;BME280;6687;47.790;7.322;2023-07-30T17:31:39;99040.34;;;29.51;30.78
13241;BME280;6687;47.790;7.322;2023-07-30T17:34:06;99046.63;;;28.65;31.11
13241;BME280;6687;47.790;7.322;2023-07-30T17:36:34;99044.91;;;28.39;31.53
13241;BME280;6687;47.790;7.322;2023-07-30T17:39:02;99052.16;;;29.36;31.31
13241;BME280;6687;47.790;7.322;2023-07-30T17:41:29;99059.66;;;29.66;30.98
13241;BME280;6687;47.790;7.322;2023-07-30T17:43:56;99063.03;;;29.81;30.82
13241;BME280;6687;47.790;7.322;2023-07-30T17:46:23;99058.50;;;29.22;30.83
13241;BME280;6687;47.790;7.322;2023-07-30T17:48:49;99049.47;;;29.36;30.38
13241;BME280;6687;47.790;7.322;2023-07-30T17:51:17;99056.97;;;29.55;30.34
13241;BME280;6687;47.790;7.322;2023-07-30T17:53:46;99061.50;;;28.81;31.25
13241;BME280;6687;47.790;7.322;2023-07-30T17:56:13;99058.25;;;28.26;31.30
13241;BME280;6687;47.790;7.322;2023-07-30T17:58:40;99056.63;;;29.60;33.58
13241;BME280;6687;47.790;7.322;2023-07-30T18:01:07;99061.34;;;29.32;33.66
13241;BME280;6687;47.790;7.322;2023-07-30T18:03:35;99065.19;;;29.41;32.28
13241;BME280;6687;47.790;7.322;2023-07-30T18:06:02;99059.81;;;29.17;33.23
13241;BME280;6687;47.790;7.322;2023-07-30T18:08:29;99060.22;;;29.47;34.00
13241;BME280;6687;47.790;7.322;2023-07-30T18:10:58;99056.00;;;29.80;33.69
13241;BME280;6687;47.790;7.322;2023-07-30T18:13:25;99060.75;;;29.64;31.18
13241;BME280;6687;47.790;7.322;2023-07-30T18:15:52;99068.75;;;29.88;32.82
13241;BME280;6687;47.790;7.322;2023-07-30T18:18:19;99068.13;;;29.84;30.93
13241;BME280;6687;47.790;7.322;2023-07-30T18:20:46;99064.09;;;29.43;30.90
13241;BME280;6687;47.790;7.322;2023-07-30T18:23:12;99069.59;;;29.77;31.56
13241;BME280;6687;47.790;7.322;2023-07-30T18:25:39;99062.22;;;29.92;32.24
13241;BME280;6687;47.790;7.322;2023-07-30T18:28:07;99052.94;;;29.49;30.64
13241;BME280;6687;47.790;7.322;2023-07-30T18:30:35;99064.47;;;29.74;32.84
13241;BME280;6687;47.790;7.322;2023-07-30T18:33:02;99062.97;;;29.70;33.24
13241;BME280;6687;47.790;7.322;2023-07-30T18:35:29;99064.72;;;29.47;31.74